sensor_id;sensor_type;location;lat;lon;timestamp;temperature;humidity
75489;HTU21D;64069;46.396;48.102;2023-09-07T00:01:32;14.17;87.31
75489;HTU21D;64069;46.396;48.102;2023-09-07T00:03:58;14.20;87.35
75489;HTU21D;64069;46.396;48.102;2023-09-07T00:06:24;14.23;87.29
75489;HTU21D;64069;46.396;48.102;2023-09-07T00:08:51;14.25;87.23
75489;HTU21D;64069;46.396;48.102;2023-09-07T00:11:17;14.25;87.22
75489;HTU21D;64069;46.396;48.102;2023-09-07T00:13:43;14.26;87.19
75489;HTU21D;64069;46.396;48.102;2023-09-07T00:16:09;14.23;87.19
75489;HTU21D;64069;46.396;48.102;2023-09-07T00:18:36;14.15;87.25
75489;HTU21D;64069;46.396;48.102;2023-09-07T00:21:02;14.09;87.44
75489;HTU21D;64069;46.396;48.102;2023-09-07T00:23:29;14.05;87.61
75489;HTU21D;64069;46.396;48.102;2023-09-07T00:25:55;14.01;87.76
75489;HTU21D;64069;46.396;48.102;2023-09-07T00:28:22;13.97;87.89
75489;HTU21D;64069;46.396;48.102;2023-09-07T00:30:48;13.94;88.05
75489;HTU21D;64069;46.396;48.102;2023-09-07T00:33:14;13.95;88.15
75489;HTU21D;64069;46.396;48.102;2023-09-07T00:35:40;13.95;88.21
75489;HTU21D;64069;46.396;48.102;2023-09-07T00:38:06;13.97;88.20
75489;HTU21D;64069;46.396;48.102;2023-09-07T00:40:32;13.99;88.17
75489;HTU21D;64069;46.396;48.102;2023-09-07T00:42:59;14.04;88.18
75489;HTU21D;64069;46.396;48.102;2023-09-07T00:45:25;14.05;88.09
75489;HTU21D;64069;46.396;48.102;2023-09-07T00:47:52;14.04;88.06
75489;HTU21D;64069;46.396;48.102;2023-09-07T00:50:18;14.03;88.09
75489;HTU21D;64069;46.396;48.102;2023-09-07T00:52:45;14.07;88.20
75489;HTU21D;64069;46.396;48.102;2023-09-07T00:55:12;14.09;88.19
75489;HTU21D;64069;46.396;48.102;2023-09-07T00:57:38;14.14;88.26
75489;HTU21D;64069;46.396;48.102;2023-09-07T01:00:06;14.21;88.25
75489;HTU21D;64069;46.396;48.102;2023-09-07T01:02:33;14.28;88.25
75489;HTU21D;64069;46.396;48.102;2023-09-07T01:05:01;14.33;88.27
75489;HTU21D;64069;46.396;48.102;2023-09-07T01:07:38;14.36;88.43
75489;HTU21D;64069;46.396;48.102;2023-09-07T01:10:06;14.35;88.42
75489;HTU21D;64069;46.396;48.102;2023-09-07T01:12:33;14.33;88.53
75489;HTU21D;64069;46.396;48.102;2023-09-07T01:14:59;14.28;88.69
75489;HTU21D;64069;46.396;48.102;2023-09-07T01:17:25;14.24;88.81
75489;HTU21D;64069;46.396;48.102;2023-09-07T01:19:52;14.23;88.93
75489;HTU21D;64069;46.396;48.102;2023-09-07T01:22:19;14.17;89.10
75489;HTU21D;64069;46.396;48.102;2023-09-07T01:24:50;14.10;89.23
75489;HTU21D;64069;46.396;48.102;2023-09-07T01:27:17;14.07;89.39
75489;HTU21D;64069;46.396;48.102;2023-09-07T01:29:43;14.01;89.52
75489;HTU21D;64069;46.396;48.102;2023-09-07T01:32:09;13.97;89.60
75489;HTU21D;64069;46.396;48.102;2023-09-07T01:34:40;13.94;89.71
75489;HTU21D;64069;46.396;48.102;2023-09-07T01:37:06;13.90;89.76
75489;HTU21D;64069;46.396;48.102;2023-09-07T01:39:32;13.88;89.83
75489;HTU21D;64069;46.396;48.102;2023-09-07T01:41:58;13.86;89.86
75489;HTU21D;64069;46.396;48.102;2023-09-07T01:44:24;13.84;89.91
75489;HTU21D;64069;46.396;48.102;2023-09-07T01:46:51;13.82;89.94
75489;HTU21D;64069;46.396;48.102;2023-09-07T01:49:17;13.84;89.92
75489;HTU21D;64069;46.396;48.102;2023-09-07T01:51:43;13.86;89.89
75489;HTU21D;64069;46.396;48.102;2023-09-07T01:54:09;13.91;89.81
75489;HTU21D;64069;46.396;48.102;2023-09-07T01:56:37;13.91;89.76
75489;HTU21D;64069;46.396;48.102;2023-09-07T01:59:03;13.93;89.76
75489;HTU21D;64069;46.396;48.102;2023-09-07T02:01:31;13.97;89.69
75489;HTU21D;64069;46.396;48.102;2023-09-07T02:03:57;14.01;89.55
75489;HTU21D;64069;46.396;48.102;2023-09-07T02:06:23;14.06;89.49
75489;HTU21D;64069;46.396;48.102;2023-09-07T02:08:49;14.06;89.45
75489;HTU21D;64069;46.396;48.102;2023-09-07T02:11:15;14.06;89.47
75489;HTU21D;64069;46.396;48.102;2023-09-07T02:13:42;14.09;89.49
75489;HTU21D;64069;46.396;48.102;2023-09-07T02:16:08;14.07;89.49
75489;HTU21D;64069;46.396;48.102;2023-09-07T02:18:36;14.09;89.53
75489;HTU21D;64069;46.396;48.102;2023-09-07T02:21:04;14.11;89.47
75489;HTU21D;64069;46.396;48.102;2023-09-07T02:23:32;14.12;89.44
75489;HTU21D;64069;46.396;48.102;2023-09-07T02:25:58;14.15;89.40
75489;HTU21D;64069;46.396;48.102;2023-09-07T02:28:25;14.14;89.31
75489;HTU21D;64069;46.396;48.102;2023-09-07T02:30:54;14.11;89.33
75489;HTU21D;64069;46.396;48.102;2023-09-07T02:33:20;14.10;89.33
75489;HTU21D;64069;46.396;48.102;2023-09-07T02:35:49;14.18;89.31
75489;HTU21D;64069;46.396;48.102;2023-09-07T02:38:15;14.25;89.09
75489;HTU21D;64069;46.396;48.102;2023-09-07T02:40:43;14.38;88.85
75489;HTU21D;64069;46.396;48.102;2023-09-07T02:43:10;14.50;88.60
75489;HTU21D;64069;46.396;48.102;2023-09-07T02:45:36;14.72;88.28
75489;HTU21D;64069;46.396;48.102;2023-09-07T02:48:03;15.01;87.67
75489;HTU21D;64069;46.396;48.102;2023-09-07T02:50:32;15.31;86.93
75489;HTU21D;64069;46.396;48.102;2023-09-07T02:53:02;15.55;86.34
75489;HTU21D;64069;46.396;48.102;2023-09-07T02:55:30;15.74;85.87
75489;HTU21D;64069;46.396;48.102;2023-09-07T02:57:57;15.92;85.51
75489;HTU21D;64069;46.396;48.102;2023-09-07T03:00:23;16.13;85.20
75489;HTU21D;64069;46.396;48.102;2023-09-07T03:02:49;16.39;84.73
75489;HTU21D;64069;46.396;48.102;2023-09-07T03:05:16;16.64;84.12
75489;HTU21D;64069;46.396;48.102;2023-09-07T03:07:45;16.91;83.54
75489;HTU21D;64069;46.396;48.102;2023-09-07T03:10:11;17.20;82.89
75489;HTU21D;64069;46.396;48.102;2023-09-07T03:12:38;17.44;82.29
75489;HTU21D;64069;46.396;48.102;2023-09-07T03:15:05;17.62;81.77
75489;HTU21D;64069;46.396;48.102;2023-09-07T03:17:31;17.81;81.32
75489;HTU21D;64069;46.396;48.102;2023-09-07T03:19:58;17.99;80.94
75489;HTU21D;64069;46.396;48.102;2023-09-07T03:22:24;18.20;80.57
75489;HTU21D;64069;46.396;48.102;2023-09-07T03:24:50;18.48;79.95
75489;HTU21D;64069;46.396;48.102;2023-09-07T03:27:17;18.64;79.46
75489;HTU21D;64069;46.396;48.102;2023-09-07T03:29:44;18.85;79.10
75489;HTU21D;64069;46.396;48.102;2023-09-07T03:32:10;19.24;78.30
75489;HTU21D;64069;46.396;48.102;2023-09-07T03:34:36;19.65;77.27
75489;HTU21D;64069;46.396;48.102;2023-09-07T03:37:02;20.00;76.13
75489;HTU21D;64069;46.396;48.102;2023-09-07T03:39:32;20.32;75.31
75489;HTU21D;64069;46.396;48.102;2023-09-07T03:41:59;20.64;74.42
75489;HTU21D;64069;46.396;48.102;2023-09-07T03:44:25;20.79;73.71
75489;HTU21D;64069;46.396;48.102;2023-09-07T03:46:51;20.83;73.40
75489;HTU21D;64069;46.396;48.102;2023-09-07T03:49:17;20.95;73.11
75489;HTU21D;64069;46.396;48.102;2023-09-07T03:51:44;21.09;72.44
75489;HTU21D;64069;46.396;48.102;2023-09-07T03:54:12;21.17;71.99
75489;HTU21D;64069;46.396;48.102;2023-09-07T03:56:39;21.29;71.45
75489;HTU21D;64069;46.396;48.102;2023-09-07T03:59:07;21.38;70.88
75489;HTU21D;64069;46.396;48.102;2023-09-07T04:01:33;21.45;70.72
75489;HTU21D;64069;46.396;48.102;2023-09-07T04:03:59;21.52;70.40
75489;HTU21D;64069;46.396;48.102;2023-09-07T04:06:25;21.68;70.11
75489;HTU21D;64069;46.396;48.102;2023-09-07T04:08:51;21.85;69.30
75489;HTU21D;64069;46.396;48.102;2023-09-07T04:11:17;22.01;68.70
75489;HTU21D;64069;46.396;48.102;2023-09-07T04:13:43;22.26;68.09
75489;HTU21D;64069;46.396;48.102;2023-09-07T04:16:09;22.52;67.38
75489;HTU21D;64069;46.396;48.102;2023-09-07T04:18:35;22.80;66.69
75489;HTU21D;64069;46.396;48.102;2023-09-07T04:21:07;23.11;65.51
75489;HTU21D;64069;46.396;48.102;2023-09-07T04:23:34;23.23;65.24
75489;HTU21D;64069;46.396;48.102;2023-09-07T04:26:09;23.26;64.45
75489;HTU21D;64069;46.396;48.102;2023-09-07T04:28:36;23.40;64.43
75489;HTU21D;64069;46.396;48.102;2023-09-07T04:31:03;23.59;63.59
75489;HTU21D;64069;46.396;48.102;2023-09-07T04:33:30;23.61;63.19
75489;HTU21D;64069;46.396;48.102;2023-09-07T04:35:57;23.73;62.82
75489;HTU21D;64069;46.396;48.102;2023-09-07T04:38:23;23.94;62.24
75489;HTU21D;64069;46.396;48.102;2023-09-07T04:40:49;24.13;60.57
75489;HTU21D;64069;46.396;48.102;2023-09-07T04:43:15;24.31;59.70
75489;HTU21D;64069;46.396;48.102;2023-09-07T04:45:47;24.41;58.74
75489;HTU21D;64069;46.396;48.102;2023-09-07T04:48:17;24.44;58.54
75489;HTU21D;64069;46.396;48.102;2023-09-07T04:50:43;24.51;58.09
75489;HTU21D;64069;46.396;48.102;2023-09-07T04:53:09;24.69;57.40
75489;HTU21D;64069;46.396;48.102;2023-09-07T04:55:37;24.85;56.68
75489;HTU21D;64069;46.396;48.102;2023-09-07T04:58:04;25.03;56.13
75489;HTU21D;64069;46.396;48.102;2023-09-07T05:00:30;25.24;55.42
75489;HTU21D;64069;46.396;48.102;2023-09-07T05:02:56;25.33;54.77
75489;HTU21D;64069;46.396;48.102;2023-09-07T05:05:22;25.35;54.58
75489;HTU21D;64069;46.396;48.102;2023-09-07T05:07:48;25.52;53.89
75489;HTU21D;64069;46.396;48.102;2023-09-07T05:10:14;25.71;53.09
75489;HTU21D;64069;46.396;48.102;2023-09-07T05:12:40;25.81;52.33
75489;HTU21D;64069;46.396;48.102;2023-09-07T05:15:06;25.73;52.41
75489;HTU21D;64069;46.396;48.102;2023-09-07T05:17:33;25.77;52.38
75489;HTU21D;64069;46.396;48.102;2023-09-07T05:19:59;25.92;52.04
75489;HTU21D;64069;46.396;48.102;2023-09-07T05:22:25;26.01;51.45
75489;HTU21D;64069;46.396;48.102;2023-09-07T05:24:52;26.10;51.11
75489;HTU21D;64069;46.396;48.102;2023-09-07T05:27:18;26.06;50.91
75489;HTU21D;64069;46.396;48.102;2023-09-07T05:29:44;26.11;50.76
75489;HTU21D;64069;46.396;48.102;2023-09-07T05:32:10;26.39;50.07
75489;HTU21D;64069;46.396;48.102;2023-09-07T05:34:36;26.65;49.53
75489;HTU21D;64069;46.396;48.102;2023-09-07T05:37:02;26.87;48.80
75489;HTU21D;64069;46.396;48.102;2023-09-07T05:39:28;27.06;48.37
75489;HTU21D;64069;46.396;48.102;2023-09-07T05:41:54;27.16;48.09
75489;HTU21D;64069;46.396;48.102;2023-09-07T05:44:20;27.26;47.69
75489;HTU21D;64069;46.396;48.102;2023-09-07T05:46:46;27.24;47.46
75489;HTU21D;64069;46.396;48.102;2023-09-07T05:49:13;27.37;47.22
75489;HTU21D;64069;46.396;48.102;2023-09-07T05:51:39;27.54;46.50
75489;HTU21D;64069;46.396;48.102;2023-09-07T05:54:05;27.61;46.03
75489;HTU21D;64069;46.396;48.102;2023-09-07T05:56:31;27.70;45.34
75489;HTU21D;64069;46.396;48.102;2023-09-07T05:58:59;27.75;45.00
75489;HTU21D;64069;46.396;48.102;2023-09-07T06:01:25;27.78;44.63
75489;HTU21D;64069;46.396;48.102;2023-09-07T06:03:51;27.86;44.49
75489;HTU21D;64069;46.396;48.102;2023-09-07T06:06:17;28.05;43.96
75489;HTU21D;64069;46.396;48.102;2023-09-07T06:08:43;28.19;43.56
75489;HTU21D;64069;46.396;48.102;2023-09-07T06:11:09;28.30;43.12
75489;HTU21D;64069;46.396;48.102;2023-09-07T06:13:35;28.32;42.75
75489;HTU21D;64069;46.396;48.102;2023-09-07T06:16:01;28.41;42.58
75489;HTU21D;64069;46.396;48.102;2023-09-07T06:18:27;28.56;41.69
75489;HTU21D;64069;46.396;48.102;2023-09-07T06:20:54;28.42;41.75
75489;HTU21D;64069;46.396;48.102;2023-09-07T06:23:20;28.25;41.93
75489;HTU21D;64069;46.396;48.102;2023-09-07T06:25:46;28.26;41.68
75489;HTU21D;64069;46.396;48.102;2023-09-07T06:28:12;28.31;41.33
75489;HTU21D;64069;46.396;48.102;2023-09-07T06:30:38;28.28;41.15
75489;HTU21D;64069;46.396;48.102;2023-09-07T06:33:04;28.25;41.00
75489;HTU21D;64069;46.396;48.102;2023-09-07T06:35:30;28.28;40.63
75489;HTU21D;64069;46.396;48.102;2023-09-07T06:37:56;28.33;39.97
75489;HTU21D;64069;46.396;48.102;2023-09-07T06:40:24;28.39;39.67
75489;HTU21D;64069;46.396;48.102;2023-09-07T06:42:54;28.53;39.27
75489;HTU21D;64069;46.396;48.102;2023-09-07T06:45:21;28.68;38.98
75489;HTU21D;64069;46.396;48.102;2023-09-07T06:47:52;28.73;38.58
75489;HTU21D;64069;46.396;48.102;2023-09-07T06:50:21;28.69;38.46
75489;HTU21D;64069;46.396;48.102;2023-09-07T06:52:47;28.74;38.34
75489;HTU21D;64069;46.396;48.102;2023-09-07T06:55:13;28.78;38.17
75489;HTU21D;64069;46.396;48.102;2023-09-07T06:57:39;28.91;37.91
75489;HTU21D;64069;46.396;48.102;2023-09-07T07:00:07;28.95;37.55
75489;HTU21D;64069;46.396;48.102;2023-09-07T07:02:34;28.91;37.41
75489;HTU21D;64069;46.396;48.102;2023-09-07T07:05:01;28.99;37.30
75489;HTU21D;64069;46.396;48.102;2023-09-07T07:07:29;29.12;36.97
75489;HTU21D;64069;46.396;48.102;2023-09-07T07:09:55;29.23;36.65
75489;HTU21D;64069;46.396;48.102;2023-09-07T07:12:21;29.36;36.50
75489;HTU21D;64069;46.396;48.102;2023-09-07T07:14:47;29.46;36.21
75489;HTU21D;64069;46.396;48.102;2023-09-07T07:17:13;29.51;36.04
75489;HTU21D;64069;46.396;48.102;2023-09-07T07:19:39;29.60;35.62
75489;HTU21D;64069;46.396;48.102;2023-09-07T07:22:07;29.60;35.17
75489;HTU21D;64069;46.396;48.102;2023-09-07T07:24:34;29.56;35.21
75489;HTU21D;64069;46.396;48.102;2023-09-07T07:27:00;29.54;35.09
75489;HTU21D;64069;46.396;48.102;2023-09-07T07:29:29;29.64;34.60
75489;HTU21D;64069;46.396;48.102;2023-09-07T07:31:55;29.66;34.14
75489;HTU21D;64069;46.396;48.102;2023-09-07T07:34:21;29.71;34.06
75489;HTU21D;64069;46.396;48.102;2023-09-07T07:36:47;29.76;33.63
75489;HTU21D;64069;46.396;48.102;2023-09-07T07:39:14;29.82;33.38
75489;HTU21D;64069;46.396;48.102;2023-09-07T07:41:42;29.73;33.49
75489;HTU21D;64069;46.396;48.102;2023-09-07T07:44:08;29.48;33.46
75489;HTU21D;64069;46.396;48.102;2023-09-07T07:46:34;29.35;33.73
75489;HTU21D;64069;46.396;48.102;2023-09-07T07:49:00;29.45;33.32
75489;HTU21D;64069;46.396;48.102;2023-09-07T07:51:27;29.46;33.35
75489;HTU21D;64069;46.396;48.102;2023-09-07T07:53:55;29.58;32.73
75489;HTU21D;64069;46.396;48.102;2023-09-07T07:56:24;29.63;32.28
75489;HTU21D;64069;46.396;48.102;2023-09-07T07:58:53;29.58;32.49
75489;HTU21D;64069;46.396;48.102;2023-09-07T08:01:20;29.54;32.05
75489;HTU21D;64069;46.396;48.102;2023-09-07T08:03:47;29.48;32.17
75489;HTU21D;64069;46.396;48.102;2023-09-07T08:06:14;29.51;32.11
75489;HTU21D;64069;46.396;48.102;2023-09-07T08:08:40;29.67;31.93
75489;HTU21D;64069;46.396;48.102;2023-09-07T08:11:07;29.75;31.28
75489;HTU21D;64069;46.396;48.102;2023-09-07T08:13:35;29.74;31.31
75489;HTU21D;64069;46.396;48.102;2023-09-07T08:16:04;29.81;31.40
75489;HTU21D;64069;46.396;48.102;2023-09-07T08:18:35;29.95;31.09
75489;HTU21D;64069;46.396;48.102;2023-09-07T08:21:01;30.03;31.23
75489;HTU21D;64069;46.396;48.102;2023-09-07T08:23:27;30.04;30.97
75489;HTU21D;64069;46.396;48.102;2023-09-07T08:25:53;29.98;30.55
75489;HTU21D;64069;46.396;48.102;2023-09-07T08:28:21;29.97;30.06
75489;HTU21D;64069;46.396;48.102;2023-09-07T08:30:51;29.90;29.84
75489;HTU21D;64069;46.396;48.102;2023-09-07T08:33:21;29.89;30.14
75489;HTU21D;64069;46.396;48.102;2023-09-07T08:35:55;29.86;30.05
75489;HTU21D;64069;46.396;48.102;2023-09-07T08:38:22;30.00;29.87
75489;HTU21D;64069;46.396;48.102;2023-09-07T08:40:54;30.02;29.84
75489;HTU21D;64069;46.396;48.102;2023-09-07T08:43:21;30.03;29.91
75489;HTU21D;64069;46.396;48.102;2023-09-07T08:45:51;30.11;29.71
75489;HTU21D;64069;46.396;48.102;2023-09-07T08:48:19;30.07;29.29
75489;HTU21D;64069;46.396;48.102;2023-09-07T08:50:46;30.08;29.45
75489;HTU21D;64069;46.396;48.102;2023-09-07T08:53:19;30.15;29.77
75489;HTU21D;64069;46.396;48.102;2023-09-07T08:55:46;30.13;29.66
75489;HTU21D;64069;46.396;48.102;2023-09-07T08:58:12;30.04;29.90
75489;HTU21D;64069;46.396;48.102;2023-09-07T09:00:39;30.11;29.68
75489;HTU21D;64069;46.396;48.102;2023-09-07T09:03:10;30.22;29.14
75489;HTU21D;64069;46.396;48.102;2023-09-07T09:05:39;30.16;28.83
75489;HTU21D;64069;46.396;48.102;2023-09-07T09:08:05;30.13;28.84
75489;HTU21D;64069;46.396;48.102;2023-09-07T09:10:32;30.15;29.03
75489;HTU21D;64069;46.396;48.102;2023-09-07T09:12:58;30.22;28.85
75489;HTU21D;64069;46.396;48.102;2023-09-07T09:15:27;30.31;28.70
75489;HTU21D;64069;46.396;48.102;2023-09-07T09:17:53;30.30;28.55
75489;HTU21D;64069;46.396;48.102;2023-09-07T09:20:28;30.33;28.43
75489;HTU21D;64069;46.396;48.102;2023-09-07T09:22:54;30.33;28.20
75489;HTU21D;64069;46.396;48.102;2023-09-07T09:25:23;30.25;28.50
75489;HTU21D;64069;46.396;48.102;2023-09-07T09:27:49;30.18;28.36
75489;HTU21D;64069;46.396;48.102;2023-09-07T09:30:15;30.17;28.58
75489;HTU21D;64069;46.396;48.102;2023-09-07T09:32:43;30.24;28.33
75489;HTU21D;64069;46.396;48.102;2023-09-07T09:35:09;30.38;28.26
75489;HTU21D;64069;46.396;48.102;2023-09-07T09:37:45;30.38;27.85
75489;HTU21D;64069;46.396;48.102;2023-09-07T09:40:13;30.38;27.82
75489;HTU21D;64069;46.396;48.102;2023-09-07T09:42:42;30.41;27.85
75489;HTU21D;64069;46.396;48.102;2023-09-07T09:45:10;30.50;28.04
75489;HTU21D;64069;46.396;48.102;2023-09-07T09:47:41;30.63;27.75
75489;HTU21D;64069;46.396;48.102;2023-09-07T09:50:09;30.68;27.68
75489;HTU21D;64069;46.396;48.102;2023-09-07T09:52:36;30.56;28.18
75489;HTU21D;64069;46.396;48.102;2023-09-07T09:55:07;30.66;27.85
75489;HTU21D;64069;46.396;48.102;2023-09-07T09:57:36;30.74;27.69
75489;HTU21D;64069;46.396;48.102;2023-09-07T10:00:07;30.71;27.91
75489;HTU21D;64069;46.396;48.102;2023-09-07T10:02:57;30.65;28.17
75489;HTU21D;64069;46.396;48.102;2023-09-07T10:05:26;30.78;27.87
75489;HTU21D;64069;46.396;48.102;2023-09-07T10:07:52;30.97;27.59
75489;HTU21D;64069;46.396;48.102;2023-09-07T10:10:19;31.11;27.29
75489;HTU21D;64069;46.396;48.102;2023-09-07T10:12:51;31.05;27.40
75489;HTU21D;64069;46.396;48.102;2023-09-07T10:15:23;31.12;27.18
75489;HTU21D;64069;46.396;48.102;2023-09-07T10:17:49;31.23;27.02
75489;HTU21D;64069;46.396;48.102;2023-09-07T10:20:19;31.30;26.69
75489;HTU21D;64069;46.396;48.102;2023-09-07T10:22:48;31.38;26.97
75489;HTU21D;64069;46.396;48.102;2023-09-07T10:25:21;31.53;26.70
75489;HTU21D;64069;46.396;48.102;2023-09-07T10:27:48;31.60;26.49
75489;HTU21D;64069;46.396;48.102;2023-09-07T10:30:15;31.55;26.78
75489;HTU21D;64069;46.396;48.102;2023-09-07T10:32:49;31.73;26.49
75489;HTU21D;64069;46.396;48.102;2023-09-07T10:35:19;31.67;26.49
75489;HTU21D;64069;46.396;48.102;2023-09-07T10:37:47;31.59;27.32
75489;HTU21D;64069;46.396;48.102;2023-09-07T10:40:19;31.50;26.97
75489;HTU21D;64069;46.396;48.102;2023-09-07T10:42:45;31.24;27.29
75489;HTU21D;64069;46.396;48.102;2023-09-07T10:45:12;31.18;27.39
75489;HTU21D;64069;46.396;48.102;2023-09-07T10:47:42;31.16;27.29
75489;HTU21D;64069;46.396;48.102;2023-09-07T10:50:12;31.21;27.15
75489;HTU21D;64069;46.396;48.102;2023-09-07T10:52:42;31.20;27.29
75489;HTU21D;64069;46.396;48.102;2023-09-07T10:55:10;31.33;27.24
75489;HTU21D;64069;46.396;48.102;2023-09-07T10:57:43;31.57;26.97
75489;HTU21D;64069;46.396;48.102;2023-09-07T11:00:12;31.79;26.71
75489;HTU21D;64069;46.396;48.102;2023-09-07T11:02:39;31.95;26.40
75489;HTU21D;64069;46.396;48.102;2023-09-07T11:05:07;32.07;25.97
75489;HTU21D;64069;46.396;48.102;2023-09-07T11:07:33;31.86;25.97
75489;HTU21D;64069;46.396;48.102;2023-09-07T11:10:00;31.78;26.23
75489;HTU21D;64069;46.396;48.102;2023-09-07T11:12:26;31.94;26.20
75489;HTU21D;64069;46.396;48.102;2023-09-07T11:14:53;32.12;25.67
75489;HTU21D;64069;46.396;48.102;2023-09-07T11:17:26;32.07;25.49
75489;HTU21D;64069;46.396;48.102;2023-09-07T11:19:53;31.82;26.03
75489;HTU21D;64069;46.396;48.102;2023-09-07T11:22:22;31.38;26.51
75489;HTU21D;64069;46.396;48.102;2023-09-07T11:24:49;31.07;26.91
75489;HTU21D;64069;46.396;48.102;2023-09-07T11:27:19;30.84;27.26
75489;HTU21D;64069;46.396;48.102;2023-09-07T11:29:51;30.76;27.16
75489;HTU21D;64069;46.396;48.102;2023-09-07T11:32:18;30.66;27.53
75489;HTU21D;64069;46.396;48.102;2023-09-07T11:34:49;30.59;27.42
75489;HTU21D;64069;46.396;48.102;2023-09-07T11:37:16;30.57;27.20
75489;HTU21D;64069;46.396;48.102;2023-09-07T11:39:43;30.51;27.24
75489;HTU21D;64069;46.396;48.102;2023-09-07T11:42:10;30.38;27.49
75489;HTU21D;64069;46.396;48.102;2023-09-07T11:44:36;30.37;27.68
75489;HTU21D;64069;46.396;48.102;2023-09-07T11:47:02;30.40;27.61
75489;HTU21D;64069;46.396;48.102;2023-09-07T11:49:29;30.39;27.59
75489;HTU21D;64069;46.396;48.102;2023-09-07T11:51:57;30.32;27.39
75489;HTU21D;64069;46.396;48.102;2023-09-07T11:54:23;30.22;27.52
75489;HTU21D;64069;46.396;48.102;2023-09-07T11:56:49;30.18;27.69
75489;HTU21D;64069;46.396;48.102;2023-09-07T11:59:16;30.10;27.84
75489;HTU21D;64069;46.396;48.102;2023-09-07T12:01:45;30.07;27.90
75489;HTU21D;64069;46.396;48.102;2023-09-07T12:04:12;29.98;27.94
75489;HTU21D;64069;46.396;48.102;2023-09-07T12:06:38;29.97;27.99
75489;HTU21D;64069;46.396;48.102;2023-09-07T12:09:05;30.06;27.65
75489;HTU21D;64069;46.396;48.102;2023-09-07T12:11:35;30.08;27.97
75489;HTU21D;64069;46.396;48.102;2023-09-07T12:14:02;30.12;27.91
75489;HTU21D;64069;46.396;48.102;2023-09-07T12:16:28;30.05;27.62
75489;HTU21D;64069;46.396;48.102;2023-09-07T12:18:54;30.05;27.35
75489;HTU21D;64069;46.396;48.102;2023-09-07T12:21:20;30.12;27.41
75489;HTU21D;64069;46.396;48.102;2023-09-07T12:23:46;30.27;27.11
75489;HTU21D;64069;46.396;48.102;2023-09-07T12:26:13;30.32;26.55
75489;HTU21D;64069;46.396;48.102;2023-09-07T12:28:40;30.20;26.66
75489;HTU21D;64069;46.396;48.102;2023-09-07T12:31:06;30.03;26.83
75489;HTU21D;64069;46.396;48.102;2023-09-07T12:33:32;29.90;26.90
75489;HTU21D;64069;46.396;48.102;2023-09-07T12:35:58;29.73;27.25
75489;HTU21D;64069;46.396;48.102;2023-09-07T12:38:25;29.64;27.28
75489;HTU21D;64069;46.396;48.102;2023-09-07T12:40:54;29.56;27.53
75489;HTU21D;64069;46.396;48.102;2023-09-07T12:43:20;29.54;27.53
75489;HTU21D;64069;46.396;48.102;2023-09-07T12:45:46;29.49;27.73
75489;HTU21D;64069;46.396;48.102;2023-09-07T12:48:12;29.43;27.65
75489;HTU21D;64069;46.396;48.102;2023-09-07T12:50:38;29.30;27.71
75489;HTU21D;64069;46.396;48.102;2023-09-07T12:53:09;29.20;27.66
75489;HTU21D;64069;46.396;48.102;2023-09-07T12:55:35;29.17;27.73
75489;HTU21D;64069;46.396;48.102;2023-09-07T12:58:01;29.14;27.56
75489;HTU21D;64069;46.396;48.102;2023-09-07T13:00:27;29.09;27.79
75489;HTU21D;64069;46.396;48.102;2023-09-07T13:02:55;29.06;27.95
75489;HTU21D;64069;46.396;48.102;2023-09-07T13:05:22;29.03;28.03
75489;HTU21D;64069;46.396;48.102;2023-09-07T13:07:50;28.98;28.09
75489;HTU21D;64069;46.396;48.102;2023-09-07T13:10:18;28.92;28.19
75489;HTU21D;64069;46.396;48.102;2023-09-07T13:12:44;28.87;28.22
75489;HTU21D;64069;46.396;48.102;2023-09-07T13:15:10;28.82;28.48
75489;HTU21D;64069;46.396;48.102;2023-09-07T13:17:36;28.80;28.61
75489;HTU21D;64069;46.396;48.102;2023-09-07T13:20:02;28.82;28.49
75489;HTU21D;64069;46.396;48.102;2023-09-07T13:22:30;28.82;28.52
75489;HTU21D;64069;46.396;48.102;2023-09-07T13:24:56;28.82;28.71
75489;HTU21D;64069;46.396;48.102;2023-09-07T13:27:22;28.78;28.73
75489;HTU21D;64069;46.396;48.102;2023-09-07T13:29:51;28.73;29.04
75489;HTU21D;64069;46.396;48.102;2023-09-07T13:32:20;28.70;29.35
75489;HTU21D;64069;46.396;48.102;2023-09-07T13:34:46;28.63;29.51
75489;HTU21D;64069;46.396;48.102;2023-09-07T13:37:13;28.60;29.55
75489;HTU21D;64069;46.396;48.102;2023-09-07T13:39:39;28.57;29.51
75489;HTU21D;64069;46.396;48.102;2023-09-07T13:42:05;28.53;29.50
75489;HTU21D;64069;46.396;48.102;2023-09-07T13:44:31;28.46;29.52
75489;HTU21D;64069;46.396;48.102;2023-09-07T13:46:58;28.39;29.76
75489;HTU21D;64069;46.396;48.102;2023-09-07T13:49:24;28.29;29.94
75489;HTU21D;64069;46.396;48.102;2023-09-07T13:51:50;28.18;30.25
75489;HTU21D;64069;46.396;48.102;2023-09-07T13:54:16;28.13;30.56
75489;HTU21D;64069;46.396;48.102;2023-09-07T13:56:42;28.03;30.86
75489;HTU21D;64069;46.396;48.102;2023-09-07T13:59:10;27.91;31.19
75489;HTU21D;64069;46.396;48.102;2023-09-07T14:01:37;27.82;31.53
75489;HTU21D;64069;46.396;48.102;2023-09-07T14:04:03;27.71;31.88
75489;HTU21D;64069;46.396;48.102;2023-09-07T14:06:30;27.59;32.22
75489;HTU21D;64069;46.396;48.102;2023-09-07T14:08:57;27.46;32.51
75489;HTU21D;64069;46.396;48.102;2023-09-07T14:11:23;27.35;32.85
75489;HTU21D;64069;46.396;48.102;2023-09-07T14:13:49;27.26;33.16
75489;HTU21D;64069;46.396;48.102;2023-09-07T14:16:20;27.13;33.45
75489;HTU21D;64069;46.396;48.102;2023-09-07T14:18:46;27.04;33.73
75489;HTU21D;64069;46.396;48.102;2023-09-07T14:21:14;26.95;34.03
75489;HTU21D;64069;46.396;48.102;2023-09-07T14:23:40;26.89;34.18
75489;HTU21D;64069;46.396;48.102;2023-09-07T14:26:08;26.83;34.34
75489;HTU21D;64069;46.396;48.102;2023-09-07T14:28:35;26.78;34.50
75489;HTU21D;64069;46.396;48.102;2023-09-07T14:31:02;26.73;34.66
75489;HTU21D;64069;46.396;48.102;2023-09-07T14:33:33;26.70;34.79
75489;HTU21D;64069;46.396;48.102;2023-09-07T14:36:00;26.66;34.98
75489;HTU21D;64069;46.396;48.102;2023-09-07T14:38:26;26.60;35.13
75489;HTU21D;64069;46.396;48.102;2023-09-07T14:40:53;26.51;35.32
75489;HTU21D;64069;46.396;48.102;2023-09-07T14:43:22;26.43;35.49
75489;HTU21D;64069;46.396;48.102;2023-09-07T14:45:49;26.37;35.68
75489;HTU21D;64069;46.396;48.102;2023-09-07T14:48:16;26.31;35.86
75489;HTU21D;64069;46.396;48.102;2023-09-07T14:50:42;26.24;36.05
75489;HTU21D;64069;46.396;48.102;2023-09-07T14:53:09;26.13;36.25
75489;HTU21D;64069;46.396;48.102;2023-09-07T14:55:35;26.02;36.52
75489;HTU21D;64069;46.396;48.102;2023-09-07T14:58:01;25.91;36.75
75489;HTU21D;64069;46.396;48.102;2023-09-07T15:00:27;25.84;36.93
75489;HTU21D;64069;46.396;48.102;2023-09-07T15:02:58;25.77;37.03